Time;durP1;ratioP1;P1;durP2;ratioP2;P2;SDS_P1;SDS_P2;PMS_P1;PMS_P2;Temp;Humidity;BMP_temperature;BMP_pressure;BME280_temperature;BME280_humidity;BME280_pressure;Samples;Min_cycle;Max_cycle;Signal;HPM_P1;HPM_P2
2021/05/10 00:01:58;;;;;;;;;;;;;;;9.03;82.85;97998.34;5016830;28;20004;-83
2021/05/10 00:04:23;;;;;;;;;;;;;;;9.00;82.98;98001.50;5045939;28;19924;-82
2021/05/10 00:06:48;;;;;;;;;;;;;;;9.01;82.49;97999.63;5029945;28;20055;-83
2021/05/10 00:09:14;;;;;;;;;;;;;;;9.00;82.67;97988.09;5038450;28;20369;-84
2021/05/10 00:11:39;;;;;;;;;;;;;;;9.01;82.67;97995.09;5055733;28;19913;-83
2021/05/10 00:14:05;;;;;;;;;;;;;;;9.02;82.03;97993.22;5055813;28;20368;-84
2021/05/10 00:16:32;;;;;;;;;;;;;;;9.04;82.22;97991.13;5039483;28;19952;-84
2021/05/10 00:18:57;;;;;;;;;;;;;;;9.04;82.61;97999.16;5026858;28;19960;-84
2021/05/10 00:21:22;;;;;;;;;;;;;;;9.05;82.28;98006.19;5071772;28;19913;-83
2021/05/10 00:23:47;;;;;;;;;;;;;;;9.04;82.05;98004.53;5055195;28;19984;-84
2021/05/10 00:26:13;;;;;;;;;;;;;;;9.08;82.83;98007.56;5072223;28;19924;-84
2021/05/10 00:28:38;;;;;;;;;;;;;;;9.08;82.17;98003.03;5041012;28;19913;-84
2021/05/10 00:31:03;;;;;;;;;;;;;;;9.10;82.50;98008.94;5024472;28;19914;-84
2021/05/10 00:33:29;;;;;;;;;;;;;;;9.12;82.56;98003.38;5050590;28;19925;-83
2021/05/10 00:35:54;;;;;;;;;;;;;;;9.12;82.00;97998.81;5072289;28;19941;-84
2021/05/10 00:38:19;;;;;;;;;;;;;;;9.12;82.09;98001.50;5071713;28;19921;-84
2021/05/10 00:40:45;;;;;;;;;;;;;;;9.12;82.27;98000.69;5072452;28;19917;-84
2021/05/10 00:43:10;;;;;;;;;;;;;;;9.14;82.22;98001.28;5072251;28;19917;-84
2021/05/10 00:45:35;;;;;;;;;;;;;;;9.16;82.29;98013.41;5057722;28;19917;-84
2021/05/10 00:48:01;;;;;;;;;;;;;;;9.17;82.52;98012.34;5042753;28;20008;-84
2021/05/10 00:50:26;;;;;;;;;;;;;;;9.18;82.36;98010.47;5039681;28;19917;-83
2021/05/10 00:52:52;;;;;;;;;;;;;;;9.18;82.69;98010.47;5038657;28;20004;-84
2021/05/10 00:55:17;;;;;;;;;;;;;;;9.19;82.76;98007.56;5038539;28;20431;-84
2021/05/10 00:57:45;;;;;;;;;;;;;;;9.18;83.13;97997.06;5055653;28;19932;-84
2021/05/10 01:00:12;;;;;;;;;;;;;;;9.19;82.77;97996.03;5053566;28;19935;-84
2021/05/10 01:02:37;;;;;;;;;;;;;;;9.19;82.46;97996.03;5056225;28;19925;-84
2021/05/10 01:05:03;;;;;;;;;;;;;;;9.17;82.81;97996.25;5039142;28;19921;-84
2021/05/10 01:07:28;;;;;;;;;;;;;;;9.18;82.18;98003.25;5038681;28;19924;-84
2021/05/10 01:09:53;;;;;;;;;;;;;;;9.19;82.53;98001.38;5041414;28;20508;-84
2021/05/10 01:12:19;;;;;;;;;;;;;;;9.19;82.53;98002.19;5056177;28;19917;-84
2021/05/10 01:14:44;;;;;;;;;;;;;;;9.19;82.07;98007.56;5043948;28;19917;-84
2021/05/10 01:17:09;;;;;;;;;;;;;;;9.21;81.86;97996.63;5055151;28;19956;-84
2021/05/10 01:19:35;;;;;;;;;;;;;;;9.21;82.13;98002.78;5037982;28;19944;-84
2021/05/10 01:22:00;;;;;;;;;;;;;;;9.21;82.16;98000.09;5038080;28;19952;-83
2021/05/10 01:24:26;;;;;;;;;;;;;;;9.21;81.98;97994.75;5023995;28;19928;-84
2021/05/10 01:26:51;;;;;;;;;;;;;;;9.19;82.18;97990.66;5054478;28;19944;-84
2021/05/10 01:29:17;;;;;;;;;;;;;;;9.17;81.85;97992.75;5067771;28;19976;-83
2021/05/10 01:31:42;;;;;;;;;;;;;;;9.16;82.63;97991.94;5049682;28;20010;-83
2021/05/10 01:34:08;;;;;;;;;;;;;;;9.17;82.35;97993.56;5037635;28;19913;-82
2021/05/10 01:36:33;;;;;;;;;;;;;;;9.19;82.31;98001.38;5021657;28;19917;-84
2021/05/10 01:38:58;;;;;;;;;;;;;;;9.18;82.13;97994.38;5051628;28;19914;-84
2021/05/10 01:41:23;;;;;;;;;;;;;;;9.16;82.15;97991.94;5067955;28;20372;-83
2021/05/10 01:43:49;;;;;;;;;;;;;;;9.17;82.71;97990.88;5042400;28;20332;-83
2021/05/10 01:46:14;;;;;;;;;;;;;;;9.15;82.88;97990.28;5053707;28;19959;-84
2021/05/10 01:48:39;;;;;;;;;;;;;;;9.13;82.77;97994.25;5024097;28;19913;-84
2021/05/10 01:51:05;;;;;;;;;;;;;;;9.11;82.51;97993.72;5042928;28;19920;-84
2021/05/10 01:53:30;;;;;;;;;;;;;;;9.09;83.14;97991.25;5019976;28;19972;-84
2021/05/10 01:55:56;;;;;;;;;;;;;;;9.08;82.64;97996.84;5036305;28;19913;-83
2021/05/10 01:58:22;;;;;;;;;;;;;;;9.05;83.16;97992.78;5069280;28;19913;-83
2021/05/10 02:00:48;;;;;;;;;;;;;;;9.01;83.42;97994.28;5039497;28;19923;-84
2021/05/10 02:03:14;;;;;;;;;;;;;;;8.95;83.40;97984.50;5036084;28;19924;-83
2021/05/10 02:05:39;;;;;;;;;;;;;;;8.87;83.36;97984.84;5035780;28;19920;-84
2021/05/10 02:08:05;;;;;;;;;;;;;;;8.82;83.64;97987.41;5037054;28;19913;-84
2021/05/10 02:10:33;;;;;;;;;;;;;;;8.77;83.92;97990.78;5036117;28;20016;-84
2021/05/10 02:13:02;;;;;;;;;;;;;;;8.74;83.94;97992.06;5066959;28;19920;-84
2021/05/10 02:15:38;;;;;;;;;;;;;;;8.71;83.59;98000.56;5053600;28;19972;-83
2021/05/10 02:18:04;;;;;;;;;;;;;;;8.71;83.73;98003.25;5036030;28;20509;-84
2021/05/10 02:20:31;;;;;;;;;;;;;;;8.74;83.73;98002.78;5036694;28;19913;-84
2021/05/10 02:22:57;;;;;;;;;;;;;;;8.77;84.09;97993.47;5035759;28;20054;-84
2021/05/10 02:25:32;;;;;;;;;;;;;;;8.78;84.28;97993.22;5035551;28;19917;-84
2021/05/10 02:27:58;;;;;;;;;;;;;;;8.78;84.36;97990.53;5053394;28;20291;-84
2021/05/10 02:30:24;;;;;;;;;;;;;;;8.78;83.96;97995.88;5041036;28;19924;-83
2021/05/10 02:32:49;;;;;;;;;;;;;;;8.78;84.48;97990.53;5027387;28;20398;-84
2021/05/10 02:35:15;;;;;;;;;;;;;;;8.78;84.61;97993.22;5028781;28;19917;-83
2021/05/10 02:37:40;;;;;;;;;;;;;;;8.78;85.01;97993.22;5026708;28;19917;-84
2021/05/10 02:40:07;;;;;;;;;;;;;;;8.78;85.29;97998.56;5026364;28;19924;-83
2021/05/10 02:42:32;;;;;;;;;;;;;;;8.79;85.56;97997.53;5035104;28;19913;-83
2021/05/10 02:44:58;;;;;;;;;;;;;;;8.80;85.28;97999.16;5025972;28;19972;-83
2021/05/10 02:47:23;;;;;;;;;;;;;;;8.84;85.11;97996.00;5030132;28;19967;-83
2021/05/10 02:49:48;;;;;;;;;;;;;;;8.87;84.67;97995.56;5035245;28;19917;-83
2021/05/10 02:52:14;;;;;;;;;;;;;;;8.87;85.10;97992.91;5051058;28;19975;-84
2021/05/10 02:54:39;;;;;;;;;;;;;;;8.87;85.09;97991.03;5034943;28;19913;-84
2021/05/10 02:57:04;;;;;;;;;;;;;;;8.87;84.58;97988.34;5034428;28;19920;-83
2021/05/10 02:59:30;;;;;;;;;;;;;;;8.89;84.39;97990.78;5034046;28;19917;-83
2021/05/10 03:01:55;;;;;;;;;;;;;;;8.90;84.80;98000.47;5033513;28;20387;-83
2021/05/10 03:04:20;;;;;;;;;;;;;;;8.91;84.67;97992.16;5032903;28;20032;-84
2021/05/10 03:06:45;;;;;;;;;;;;;;;8.91;84.78;97994.03;5026885;28;20015;-84
2021/05/10 03:09:11;;;;;;;;;;;;;;;8.90;85.13;97989.75;5026407;28;20299;-84
2021/05/10 03:11:36;;;;;;;;;;;;;;;8.90;85.06;97992.41;5029688;28;19921;-84
2021/05/10 03:14:01;;;;;;;;;;;;;;;8.92;85.08;97998.38;5029054;28;19917;-83
2021/05/10 03:16:27;;;;;;;;;;;;;;;8.93;84.74;97986.59;5030150;28;19937;-83
2021/05/10 03:18:52;;;;;;;;;;;;;;;8.94;84.78;97986.34;5028068;28;20296;-84
2021/05/10 03:21:17;;;;;;;;;;;;;;;8.97;84.57;97991.25;5031979;28;19925;-83
2021/05/10 03:23:42;;;;;;;;;;;;;;;8.97;85.51;97991.25;5044077;28;19933;-83
2021/05/10 03:26:08;;;;;;;;;;;;;;;8.97;84.78;97990.41;5017882;28;19939;-83
2021/05/10 03:28:33;;;;;;;;;;;;;;;8.97;84.77;97991.25;5028540;28;19928;-83
2021/05/10 03:30:58;;;;;;;;;;;;;;;8.97;84.83;97985.91;5030332;28;20358;-83
2021/05/10 03:33:23;;;;;;;;;;;;;;;8.97;85.23;97987.75;5029175;28;19913;-83
2021/05/10 03:35:49;;;;;;;;;;;;;;;8.97;85.57;97987.75;5034534;28;19921;-83
2021/05/10 03:38:14;;;;;;;;;;;;;;;8.97;85.68;97993.09;5029446;28;20439;-83
2021/05/10 03:40:39;;;;;;;;;;;;;;;8.94;85.60;97980.16;5029948;28;19913;-83
2021/05/10 03:43:05;;;;;;;;;;;;;;;8.94;85.13;97986.34;5029185;28;19917;-83
2021/05/10 03:45:30;;;;;;;;;;;;;;;8.91;85.55;97988.69;5029973;28;19917;-82
2021/05/10 03:47:55;;;;;;;;;;;;;;;8.91;85.70;97980.66;5058853;28;19987;-84
2021/05/10 03:50:21;;;;;;;;;;;;;;;8.90;85.76;97979.03;5020180;28;19917;-83
2021/05/10 03:52:47;;;;;;;;;;;;;;;8.90;86.09;97981.69;5029513;28;19963;-83
2021/05/10 03:55:16;;;;;;;;;;;;;;;8.88;85.89;97979.25;5029675;28;20335;-82
2021/05/10 03:57:41;;;;;;;;;;;;;;;8.88;86.07;97976.56;5030047;28;19914;-83
2021/05/10 04:00:08;;;;;;;;;;;;;;;8.87;85.52;97974.13;5021559;28;19928;-83
2021/05/10 04:02:34;;;;;;;;;;;;;;;8.87;86.01;97982.19;5043104;28;19921;-84
2021/05/10 04:15:17;;;;;;;;;;;;;;;8.89;86.07;97991.63;5054962;28;20050;-84
2021/05/10 04:17:43;;;;;;;;;;;;;;;8.89;85.56;97986.25;5027783;28;20387;-82
2021/05/10 04:20:08;;;;;;;;;;;;;;;8.90;85.88;97987.88;5031403;28;20287;-83
2021/05/10 04:22:33;;;;;;;;;;;;;;;8.89;85.68;97990.78;5031641;28;19918;-83
2021/05/10 04:24:59;;;;;;;;;;;;;;;8.89;86.06;97986.25;5026760;28;19917;-83
2021/05/10 04:27:26;;;;;;;;;;;;;;;8.89;86.44;97988.09;5028232;28;20702;-83
2021/05/10 04:29:51;;;;;;;;;;;;;;;8.90;86.23;97997.78;5060283;28;20035;-83
2021/05/10 04:32:16;;;;;;;;;;;;;;;8.90;86.29;97992.41;5019472;28;20020;-83
2021/05/10 04:34:41;;;;;;;;;;;;;;;8.90;86.20;97989.75;5028506;28;20277;-83
2021/05/10 04:37:07;;;;;;;;;;;;;;;8.90;86.50;98001.28;5029427;28;19921;-84
2021/05/10 04:39:32;;;;;;;;;;;;;;;8.89;86.61;98002.34;5044639;28;19955;-83
2021/05/10 04:41:57;;;;;;;;;;;;;;;8.89;86.44;97996.13;5033816;28;20276;-84
2021/05/10 04:44:22;;;;;;;;;;;;;;;8.88;86.89;97997.19;5032908;28;19951;-83
2021/05/10 04:46:48;;;;;;;;;;;;;;;8.88;87.13;97999.88;5028040;28;19968;-83
2021/05/10 04:49:13;;;;;;;;;;;;;;;8.85;86.81;97998.47;5042693;28;19925;-83
2021/05/10 04:51:38;;;;;;;;;;;;;;;8.83;87.20;98005.09;5028412;28;19960;-83
2021/05/10 04:54:04;;;;;;;;;;;;;;;8.82;87.00;98006.16;5028495;28;20414;-83
2021/05/10 04:56:29;;;;;;;;;;;;;;;8.80;87.92;98004.53;5026863;28;19964;-83
2021/05/10 04:58:54;;;;;;;;;;;;;;;8.80;87.70;98004.53;5039081;28;19913;-83
2021/05/10 05:01:20;;;;;;;;;;;;;;;8.80;88.12;98009.88;5028380;28;19956;-83
2021/05/10 05:03:45;;;;;;;;;;;;;;;8.79;87.72;98013.63;5013059;28;19925;-83
2021/05/10 05:06:10;;;;;;;;;;;;;;;8.80;88.89;98004.53;5043347;28;19917;-83
2021/05/10 05:08:35;;;;;;;;;;;;;;;8.81;88.62;98021.41;5059025;28;20832;-84
2021/05/10 05:11:01;;;;;;;;;;;;;;;8.82;88.76;98022.25;5030932;28;19945;-83
2021/05/10 05:13:27;;;;;;;;;;;;;;;8.82;90.61;98017.69;5027958;28;19925;-83
2021/05/10 05:15:52;;;;;;;;;;;;;;;8.82;90.45;98014.22;5026350;28;19925;-83
2021/05/10 05:18:18;;;;;;;;;;;;;;;8.83;90.85;98018.50;5041663;28;19917;-83
2021/05/10 05:20:43;;;;;;;;;;;;;;;8.81;90.66;98021.41;5025833;28;20011;-83
2021/05/10 05:23:18;;;;;;;;;;;;;;;8.82;91.18;98022.25;5046838;28;19925;-83
2021/05/10 05:25:44;;;;;;;;;;;;;;;8.82;91.05;98024.91;5024180;28;19928;-82
2021/05/10 05:28:09;;;;;;;;;;;;;;;8.82;91.58;98027.59;5027105;28;20331;-83
2021/05/10 05:30:34;;;;;;;;;;;;;;;8.83;90.96;98027.34;5031658;28;20307;-83
2021/05/10 05:33:00;;;;;;;;;;;;;;;8.85;90.88;98037.84;5027686;28;19917;-83
2021/05/10 05:35:25;;;;;;;;;;;;;;;8.86;90.74;98034.13;5011719;28;19920;-83
2021/05/10 05:37:50;;;;;;;;;;;;;;;8.88;90.46;98032.03;5039450;28;19921;-83
2021/05/10 05:40:15;;;;;;;;;;;;;;;8.92;91.32;98038.56;5029104;28;20355;-82
2021/05/10 05:42:41;;;;;;;;;;;;;;;8.95;90.76;98032.75;5027262;28;19919;-84
2021/05/10 05:45:06;;;;;;;;;;;;;;;8.98;91.01;98033.09;5058938;28;19921;-84
2021/05/10 05:47:32;;;;;;;;;;;;;;;9.04;91.03;98044.72;5011083;28;19921;-83
2021/05/10 05:49:57;;;;;;;;;;;;;;;9.07;91.04;98032.72;5027463;28;19921;-83
2021/05/10 05:52:22;;;;;;;;;;;;;;;9.12;91.07;98039.03;5043751;28;19917;-84
2021/05/10 05:54:48;;;;;;;;;;;;;;;9.14;90.69;98034.25;5030630;28;20281;-83
2021/05/10 05:57:13;;;;;;;;;;;;;;;9.20;90.26;98041.34;5028062;28;19919;-84
2021/05/10 05:59:38;;;;;;;;;;;;;;;9.24;90.28;98047.91;5028329;28;20267;-83
2021/05/10 06:02:04;;;;;;;;;;;;;;;9.28;90.43;98053.59;5028602;28;20016;-83
2021/05/10 06:04:29;;;;;;;;;;;;;;;9.32;90.38;98051.28;5013060;28;19925;-83
2021/05/10 06:06:55;;;;;;;;;;;;;;;9.31;89.75;98052.31;5023857;28;20372;-83
2021/05/10 06:09:21;;;;;;;;;;;;;;;9.33;89.97;98053.72;5029254;28;19963;-84
2021/05/10 06:11:47;;;;;;;;;;;;;;;9.32;90.17;98053.97;5032803;28;19913;-83
2021/05/10 06:14:12;;;;;;;;;;;;;;;9.29;90.03;98047.19;5025267;28;19925;-84
2021/05/10 06:16:37;;;;;;;;;;;;;;;9.29;90.21;98052.56;5028038;28;19917;-83
2021/05/10 06:19:02;;;;;;;;;;;;;;;9.29;90.38;98059.75;5012167;28;19917;-83
2021/05/10 06:21:28;;;;;;;;;;;;;;;9.26;89.91;98061.06;5027629;28;19988;-84
2021/05/10 06:23:53;;;;;;;;;;;;;;;9.21;90.38;98056.41;5025706;28;20410;-83
2021/05/10 06:26:19;;;;;;;;;;;;;;;9.19;90.22;98060.38;5009234;28;19924;-83
2021/05/10 06:28:45;;;;;;;;;;;;;;;9.16;90.92;98067.00;5013557;28;20435;-84
2021/05/10 06:31:11;;;;;;;;;;;;;;;9.15;90.67;98065.34;5014539;28;19925;-85
2021/05/10 06:33:37;;;;;;;;;;;;;;;9.15;91.59;98060.00;5041055;28;20372;-84
2021/05/10 06:36:02;;;;;;;;;;;;;;;9.15;91.41;98057.31;5035236;28;20366;-85
2021/05/10 06:38:27;;;;;;;;;;;;;;;9.17;91.65;98063.28;5045617;28;20269;-85
2021/05/10 06:40:53;;;;;;;;;;;;;;;9.20;91.46;98062.81;5061446;28;19951;-85
2021/05/10 06:43:19;;;;;;;;;;;;;;;9.25;91.26;98068.28;5045687;28;19921;-85
2021/05/10 06:45:44;;;;;;;;;;;;;;;9.31;91.55;98069.22;5034134;28;19917;-85
2021/05/10 06:48:09;;;;;;;;;;;;;;;9.35;90.84;98070.38;5060998;28;19917;-86
2021/05/10 06:50:34;;;;;;;;;;;;;;;9.41;90.85;98074.00;5036210;28;20015;-84
2021/05/10 06:53:00;;;;;;;;;;;;;;;9.48;90.83;98074.69;5035403;28;19917;-84
2021/05/10 06:55:25;;;;;;;;;;;;;;;9.58;90.30;98076.78;5020223;28;20510;-85
2021/05/10 06:57:50;;;;;;;;;;;;;;;9.71;90.50;98083.75;5036150;28;19928;-84
2021/05/10 07:00:17;;;;;;;;;;;;;;;9.76;89.93;98078.50;5037236;28;20287;-84
2021/05/10 07:02:42;;;;;;;;;;;;;;;9.82;89.48;98082.94;5031952;28;19966;-83
2021/05/10 07:05:07;;;;;;;;;;;;;;;9.87;88.83;98078.50;5049837;28;19913;-84
2021/05/10 07:07:33;;;;;;;;;;;;;;;10.03;88.28;98076.09;5033821;28;19913;-84
2021/05/10 07:09:59;;;;;;;;;;;;;;;10.10;88.12;98080.28;5032950;28;20463;-83
2021/05/10 07:12:24;;;;;;;;;;;;;;;10.17;88.01;98080.16;4918393;28;116457;-84
2021/05/10 07:14:49;;;;;;;;;;;;;;;10.16;87.93;98081.22;4987995;28;19979;-83
2021/05/10 07:17:15;;;;;;;;;;;;;;;10.11;87.88;98076.56;5020574;28;20356;-84
2021/05/10 07:19:40;;;;;;;;;;;;;;;10.08;88.35;98079.72;5009171;28;19921;-84
2021/05/10 07:22:07;;;;;;;;;;;;;;;10.12;88.57;98080.06;4997063;28;20581;-84
2021/05/10 07:24:32;;;;;;;;;;;;;;;10.11;88.22;98084.63;5009221;28;19922;-84
2021/05/10 07:26:58;;;;;;;;;;;;;;;10.06;87.65;98079.16;5004020;28;19925;-84
2021/05/10 07:29:23;;;;;;;;;;;;;;;10.04;88.18;98081.25;5019609;28;19960;-84
2021/05/10 07:31:48;;;;;;;;;;;;;;;10.04;87.77;98089.31;5028248;28;19925;-84
2021/05/10 07:34:13;;;;;;;;;;;;;;;10.04;87.47;98093.84;5009810;28;19961;-83
2021/05/10 07:36:39;;;;;;;;;;;;;;;10.06;87.96;98092.56;5027209;28;20024;-84
2021/05/10 07:39:05;;;;;;;;;;;;;;;10.15;87.39;98084.94;5026193;28;20507;-86
2021/05/10 07:41:30;;;;;;;;;;;;;;;10.20;87.25;98085.06;5026192;28;19914;-84
2021/05/10 07:43:55;;;;;;;;;;;;;;;10.31;86.63;98092.28;5024348;28;19972;-83
2021/05/10 07:46:20;;;;;;;;;;;;;;;10.46;86.35;98097.13;5010015;28;19971;-85
2021/05/10 07:48:46;;;;;;;;;;;;;;;10.57;85.42;98090.88;5038757;28;20016;-84
2021/05/10 07:51:11;;;;;;;;;;;;;;;10.68;85.42;98099.13;4996848;28;19933;-84
2021/05/10 07:53:36;;;;;;;;;;;;;;;10.74;85.34;98103.53;5015055;28;19914;-82
2021/05/10 07:56:02;;;;;;;;;;;;;;;10.83;85.02;98099.41;5008786;28;19925;-84
2021/05/10 07:58:27;;;;;;;;;;;;;;;10.92;84.41;98095.25;5009972;28;19926;-83
2021/05/10 08:01:02;;;;;;;;;;;;;;;11.03;84.09;98100.78;5010177;28;19924;-83
2021/05/10 08:03:29;;;;;;;;;;;;;;;11.05;82.72;98099.50;5026983;28;19933;-83
2021/05/10 08:05:54;;;;;;;;;;;;;;;11.08;82.57;98106.25;4996668;28;19917;-83
2021/05/10 08:08:23;;;;;;;;;;;;;;;11.06;81.58;98097.63;5008321;28;19917;-84
2021/05/10 08:10:48;;;;;;;;;;;;;;;11.11;81.91;98095.00;5009602;28;20396;-84
2021/05/10 08:13:14;;;;;;;;;;;;;;;11.21;81.02;98095.19;5026761;28;19913;-83
2021/05/10 08:15:39;;;;;;;;;;;;;;;11.32;81.49;98098.84;5010212;28;19914;-84
2021/05/10 08:18:04;;;;;;;;;;;;;;;11.38;80.54;98097.88;5008619;28;19913;-83
2021/05/10 08:20:30;;;;;;;;;;;;;;;11.41;79.59;98098.19;5042517;28;20012;-84
2021/05/10 08:22:55;;;;;;;;;;;;;;;11.54;79.41;98090.84;5008427;28;19968;-83
2021/05/10 08:25:20;;;;;;;;;;;;;;;11.74;79.16;98099.19;5023715;28;20407;-84
2021/05/10 08:27:46;;;;;;;;;;;;;;;11.79;78.00;98091.16;5006118;28;19949;-84
2021/05/10 08:30:11;;;;;;;;;;;;;;;11.78;78.35;98094.13;5011676;28;20277;-84
2021/05/10 08:32:37;;;;;;;;;;;;;;;11.75;78.96;98095.44;5027490;28;19953;-84
2021/05/10 08:35:02;;;;;;;;;;;;;;;11.67;78.30;98103.94;5033653;28;19918;-84
2021/05/10 08:37:28;;;;;;;;;;;;;;;11.64;79.02;98096.34;5030114;28;19917;-84
2021/05/10 08:39:54;;;;;;;;;;;;;;;11.43;79.59;98104.16;5023663;28;19925;-84
2021/05/10 08:42:19;;;;;;;;;;;;;;;11.31;79.75;98102.59;5014750;28;19914;-84
2021/05/10 08:44:45;;;;;;;;;;;;;;;11.21;80.78;98114.00;5023829;28;20825;-85
2021/05/10 08:47:10;;;;;;;;;;;;;;;11.23;81.58;98110.00;5027763;28;19918;-84
2021/05/10 08:49:35;;;;;;;;;;;;;;;11.35;81.48;98109.94;5026754;28;19925;-84
2021/05/10 08:52:01;;;;;;;;;;;;;;;11.40;80.39;98112.69;5014511;28;19972;-84
2021/05/10 08:54:27;;;;;;;;;;;;;;;11.59;80.94;98115.09;5034620;28;19979;-84
2021/05/10 08:56:53;;;;;;;;;;;;;;;11.73;79.80;98108.34;5016486;28;19996;-83
2021/05/10 08:59:19;;;;;;;;;;;;;;;12.02;79.42;98110.91;5016736;28;19917;-84
2021/05/10 09:01:45;;;;;;;;;;;;;;;12.14;76.47;98114.25;5033243;28;20061;-84
2021/05/10 09:04:10;;;;;;;;;;;;;;;12.23;76.05;98103.88;5032833;28;19921;-84
2021/05/10 09:06:36;;;;;;;;;;;;;;;12.15;76.77;98105.13;5016348;28;19913;-84
2021/05/10 09:09:08;;;;;;;;;;;;;;;12.38;74.40;98103.22;5014162;28;19917;-84
2021/05/10 09:11:34;;;;;;;;;;;;;;;12.61;74.24;98102.94;5006539;28;19913;-84
2021/05/10 09:14:00;;;;;;;;;;;;;;;12.97;72.94;98103.31;5016666;28;19977;-84
2021/05/10 09:16:26;;;;;;;;;;;;;;;13.08;71.19;98110.41;5016570;28;19941;-84
2021/05/10 09:18:52;;;;;;;;;;;;;;;13.09;71.03;98105.81;5033238;28;19913;-83
2021/05/10 09:21:18;;;;;;;;;;;;;;;12.95;71.86;98103.53;5032805;28;19955;-84
2021/05/10 09:23:44;;;;;;;;;;;;;;;13.02;72.13;98102.50;5032923;28;20301;-84
2021/05/10 09:26:11;;;;;;;;;;;;;;;13.23;71.29;98107.03;5049215;28;19913;-84
2021/05/10 09:28:40;;;;;;;;;;;;;;;13.44;69.78;98102.59;5027904;28;19913;-84
2021/05/10 09:31:07;;;;;;;;;;;;;;;13.86;69.42;98096.38;5049939;28;19920;-84
2021/05/10 09:33:32;;;;;;;;;;;;;;;13.82;69.45;98103.41;5047076;28;19913;-84
2021/05/10 09:36:05;;;;;;;;;;;;;;;13.33;69.46;98099.00;5013665;28;20281;-84
2021/05/10 09:38:31;;;;;;;;;;;;;;;13.10;70.32;98116.38;5032788;28;19913;-83
2021/05/10 09:40:57;;;;;;;;;;;;;;;13.02;70.26;98111.44;5032719;28;20307;-83
2021/05/10 09:43:24;;;;;;;;;;;;;;;13.17;69.11;98106.16;5032179;28;19922;-84
2021/05/10 09:45:50;;;;;;;;;;;;;;;13.16;68.70;98111.81;5026681;28;19945;-84
2021/05/10 09:48:19;;;;;;;;;;;;;;;13.12;69.57;98099.91;5001856;28;19913;-83
2021/05/10 09:50:50;;;;;;;;;;;;;;;13.27;70.00;98110.03;5009418;28;19914;-84
2021/05/10 09:53:19;;;;;;;;;;;;;;;13.40;70.03;98106.91;5024272;28;20347;-84
2021/05/10 09:55:51;;;;;;;;;;;;;;;13.29;70.24;98113.31;5024675;28;20309;-84
2021/05/10 09:58:17;;;;;;;;;;;;;;;13.01;70.08;98112.50;5020875;28;19913;-84
2021/05/10 10:00:42;;;;;;;;;;;;;;;12.70;70.73;98116.78;4997312;28;19919;-84
2021/05/10 10:03:21;;;;;;;;;;;;;;;12.54;72.77;98115.81;5007736;28;19936;-84
2021/05/10 10:05:47;;;;;;;;;;;;;;;12.89;73.44;98125.34;5018635;28;19928;-84
2021/05/10 10:08:12;;;;;;;;;;;;;;;13.19;72.71;98128.28;5007223;28;19913;-84
2021/05/10 10:10:37;;;;;;;;;;;;;;;13.77;69.93;98128.47;5008230;28;20103;-84
2021/05/10 10:13:02;;;;;;;;;;;;;;;13.78;68.62;98135.50;5008129;28;20419;-84
2021/05/10 10:15:28;;;;;;;;;;;;;;;13.80;68.37;98132.53;5007705;28;19921;-83
2021/05/10 10:17:53;;;;;;;;;;;;;;;13.44;68.15;98135.00;5007436;28;19924;-84
2021/05/10 10:20:18;;;;;;;;;;;;;;;13.14;69.28;98140.94;5024635;28;19918;-83
2021/05/10 10:22:44;;;;;;;;;;;;;;;12.87;71.15;98140.97;5008738;28;20071;-84
2021/05/10 10:25:09;;;;;;;;;;;;;;;12.62;72.79;98144.19;5023644;28;20000;-84
2021/05/10 10:27:34;;;;;;;;;;;;;;;12.39;73.48;98154.19;5007707;28;19922;-85
2021/05/10 10:30:00;;;;;;;;;;;;;;;12.21;74.82;98143.72;5024281;28;20387;-85
2021/05/10 10:32:25;;;;;;;;;;;;;;;12.13;75.21;98158.44;5024916;28;20261;-85
2021/05/10 10:34:50;;;;;;;;;;;;;;;12.16;75.96;98147.16;5025455;28;19913;-85
2021/05/10 10:37:16;;;;;;;;;;;;;;;12.31;75.44;98158.13;5007878;28;20047;-85
2021/05/10 10:39:56;;;;;;;;;;;;;;;12.54;75.83;98151.69;5024454;28;19914;-85
2021/05/10 10:42:22;;;;;;;;;;;;;;;13.15;73.96;98154.19;4990266;28;19913;-85
2021/05/10 10:44:56;;;;;;;;;;;;;;;13.72;73.17;98154.66;5007916;28;19927;-85
2021/05/10 10:47:44;;;;;;;;;;;;;;;13.63;69.51;98159.72;5008160;28;19956;-85
2021/05/10 10:50:10;;;;;;;;;;;;;;;13.25;70.09;98166.13;5011324;28;20088;-85
2021/05/10 10:52:45;;;;;;;;;;;;;;;12.96;72.08;98164.50;5026681;28;19913;-85
2021/05/10 10:55:30;;;;;;;;;;;;;;;12.82;72.54;98170.56;5010135;28;19922;-85
2021/05/10 10:58:14;;;;;;;;;;;;;;;12.62;73.06;98169.28;5000472;28;19917;-84
2021/05/10 11:00:59;;;;;;;;;;;;;;;12.50;74.89;98179.38;5000679;28;20384;-85
2021/05/10 11:03:28;;;;;;;;;;;;;;;12.32;76.31;98186.69;5008824;28;20312;-84
2021/05/10 11:05:54;;;;;;;;;;;;;;;12.07;77.72;98178.31;5027675;28;19917;-83
2021/05/10 11:08:38;;;;;;;;;;;;;;;11.94;78.89;98192.13;5010342;28;19914;-84
2021/05/10 11:11:03;;;;;;;;;;;;;;;11.80;78.74;98194.28;5038412;28;19913;-84
2021/05/10 11:13:29;;;;;;;;;;;;;;;11.65;79.39;98195.69;5031327;28;19913;-84
2021/05/10 11:15:57;;;;;;;;;;;;;;;11.66;79.62;98188.44;5014881;28;19918;-84
2021/05/10 11:18:49;;;;;;;;;;;;;;;11.81;79.43;98204.81;4920582;28;119783;-87
2021/05/10 11:21:26;;;;;;;;;;;;;;;12.16;79.11;98205.63;4978602;28;19918;-85
2021/05/10 11:23:55;;;;;;;;;;;;;;;12.53;77.37;98192.34;5007434;28;19929;-85
2021/05/10 11:26:40;;;;;;;;;;;;;;;12.86;76.36;98193.25;5023910;28;19918;-86
2021/05/10 11:29:10;;;;;;;;;;;;;;;13.33;75.07;98189.97;4999915;28;19921;-84
2021/05/10 11:31:38;;;;;;;;;;;;;;;13.90;74.52;98191.22;5026570;28;19960;-86
2021/05/10 11:34:09;;;;;;;;;;;;;;;14.30;72.54;98201.44;5011635;28;20296;-85
2021/05/10 11:36:53;;;;;;;;;;;;;;;14.70;70.30;98200.84;5003032;28;20335;-85
2021/05/10 11:39:21;;;;;;;;;;;;;;;14.99;69.95;98197.69;5026477;28;20335;-85
2021/05/10 11:41:46;;;;;;;;;;;;;;;14.86;70.63;98201.69;5028522;28;20457;-85
2021/05/10 11:44:18;;;;;;;;;;;;;;;14.69;71.41;98203.81;5027609;28;19918;-85
2021/05/10 11:46:44;;;;;;;;;;;;;;;14.47;69.57;98206.66;5010420;28;19913;-86
2021/05/10 11:49:10;;;;;;;;;;;;;;;14.34;69.77;98212.53;5035073;28;19914;-85
2021/05/10 11:51:40;;;;;;;;;;;;;;;14.23;69.64;98208.97;5011677;28;19918;-85
2021/05/10 11:54:09;;;;;;;;;;;;;;;14.05;68.03;98212.91;5001798;28;19972;-85
2021/05/10 11:56:39;;;;;;;;;;;;;;;14.28;68.60;98220.63;5008511;28;20296;-85
2021/05/10 11:59:22;;;;;;;;;;;;;;;14.46;68.03;98216.66;5007255;28;19918;-85
2021/05/10 12:01:47;;;;;;;;;;;;;;;14.55;68.22;98221.59;5009818;28;19913;-85
2021/05/10 12:04:20;;;;;;;;;;;;;;;14.70;66.30;98232.50;5023579;28;20480;-85
2021/05/10 12:06:45;;;;;;;;;;;;;;;15.02;66.54;98234.22;5012026;28;20037;-85
2021/05/10 12:09:37;;;;;;;;;;;;;;;15.46;65.83;98231.06;4996380;28;19953;-84
2021/05/10 12:12:22;;;;;;;;;;;;;;;15.17;65.55;98226.94;5010974;28;19917;-85
2021/05/10 12:14:48;;;;;;;;;;;;;;;14.65;66.76;98235.97;5008680;28;19913;-85
2021/05/10 12:17:14;;;;;;;;;;;;;;;14.20;67.69;98233.81;4997717;28;20377;-85
2021/05/10 12:19:59;;;;;;;;;;;;;;;13.79;68.67;98236.25;5009298;28;19921;-86
2021/05/10 12:22:25;;;;;;;;;;;;;;;13.34;70.05;98238.31;5008738;28;19922;-86
2021/05/10 12:25:07;;;;;;;;;;;;;;;12.97;71.60;98244.38;5010018;28;20296;-85
2021/05/10 12:27:52;;;;;;;;;;;;;;;12.66;72.72;98259.38;5004276;28;20324;-86
2021/05/10 12:30:23;;;;;;;;;;;;;;;12.34;74.77;98272.69;5007567;28;20428;-85
2021/05/10 12:32:56;;;;;;;;;;;;;;;12.13;75.19;98274.28;5012295;28;20496;-85
2021/05/10 12:55:13;;;;;;;;;;;;;;;25.30;38.47;98301.31;5099886;27;19981;-59
2021/05/10 12:57:40;;;;;;;;;;;;;;;24.61;40.02;98296.09;5074056;28;19916;-60
2021/05/10 13:00:06;;;;;;;;;;;;;;;24.17;40.86;98307.19;5074844;28;19985;-60
2021/05/10 13:02:35;;;;;;;;;;;;;;;23.96;41.47;98306.22;5081077;28;20635;-60
2021/05/10 13:05:01;;;;;;;;;;;;;;;24.01;41.22;98300.56;5074117;28;20697;-59
2021/05/10 13:07:44;;;;;;;;;;;;;;;24.06;41.18;98298.47;5091878;28;19966;-59
2021/05/10 13:10:10;;;;;;;;;;;;;;;24.12;41.09;98301.84;4896372;28;100418;-59
2021/05/10 13:12:46;;;;;;;;;;;;;;;24.11;40.93;98306.53;4945284;28;19916;-60
2021/05/10 13:27:01;;;;;;;2.55;1.40;;;;;;;26.47;39.03;98322.53;5037039;28;20397;-49
2021/05/10 13:50:44;;;;;;;5.00;1.80;;;;;;;23.67;37.92;98332.34;5061219;28;20433;-72
2021/05/10 13:53:09;;;;;;;2.92;1.40;;;;;;;22.98;39.47;98330.25;4985297;27;20061;-73